KCNU/CNU METAR and TAF weather

Enter ICAO airport designator
Station Type Date Time Source
KCNU METAR 2020/02/26 09:52 UTC NOAA

KCNU 260952Z AUTO 35011G18KT 10SM BKN040 BKN090 01/M05 A3025 RMK AO2 SLP249 T00061050


Station Type Date Time Source
KCNU Decoded METAR 2020/02/26 09:52 UTC NOAA

CHANUTE JOHNSON AIRPORT, KS, United States (KCNU) 37-40N 95-29W 297M
Feb 26, 2020 - 04:52 AM EST / 2020.02.26 0952 UTC
Wind: from the N (350 degrees) at 13 MPH (11 KT) gusting to 21 MPH (18 KT):0
Visibility: 10 mile(s):0
Sky conditions: mostly cloudy
Temperature: 33.1 F (0.6 C)
Windchill: 23 F (-5 C):1
Dew Point: 23.0 F (-5.0 C)
Relative Humidity: 66%
Pressure (altimeter): 30.25 in. Hg (1024 hPa)
ob: KCNU 260952Z AUTO 35011G18KT 10SM BKN040 BKN090 01/M05 A3025 RMK AO2 SLP249 T00061050
cycle: 10

Station Type Date Time Source
KCNU TAF 2020/02/26 07:03 UTC NOAA

TAF
AMD KCNU 260700Z 2607/2706 35012KT P6SM -SN FEW015 SCT020 BKN050
FM260800 34013KT P6SM BKN040
FM261500 34014KT P6SM BKN030
FM270100 31008KT P6SM FEW250

Example: see airport list